메인 페이지
METAR-TAF:

METAR-TAF

공항 :

위치토, 캔자스, 미국

위도: 37-37N, 경도: 097-16W, 고도: 418m

현재 날씨관측

예보는 44분 전, 20:56시(UTC)에 발표되었습니다.
서북서17kt, 순간 최대 풍속 30kt
온도 31°C
습도 27%
기압 1011 hPa
시정: 16.1km
고도 8000ft 상공 구름 조금

METAR: KIAB 212056Z AUTO 29017G30KT 10SM FEW080 31/10 A2985 RMK AO2 PK WND 32031/33 SLP098 T03090102 57015 $

시각: 16:40 (21:40 UTC)

예보

예보는 3 시간 40분 전, 18:00시(UTC)에 발표되었습니다.
예보 대상 시간: 21일 18시부터 22일 24시까지 (UTC)
북서20kt, 순간 최대 풍속 30kt
시정 10km 이상
고도 8000ft 상공 구름 조금
전환 중
21일 21시부터 21일 22시까지 (UTC)
북북서12kt, 순간 최대 풍속 18kt
시정 10km 이상
맑음
전환 중
22일 02시부터 22일 03시까지 (UTC)
북북서9kt
시정 10km 이상
맑음
전환 중
22일 19시부터 22일 20시까지 (UTC)
9kt
시정 10km 이상
고도 7000ft 상공 구름 조금

TAF: KIAB 211800Z 2118/2224 31020G30KT 9999 FEW080 QNH2985INS BECMG 2121/2122 34012G18KT 9999 SKC QNH2882INS BECMG 2202/2203 33009KT 9999 SKC QNH2987INS BECMG 2219/2220 09009KT 9999 FEW070 QNH2975INS TX31/2120Z TN16/2211Z

4,000개 이상의 공항 관측 자료 및 예보 (METAR 및 TAF 보고).

지도상에서 검색 가능한 기상관측소가 노란 점과 빨간 점으로 표시되어 있습니다.

기상관측소 명을 보려면 표시 위로 마우스를 이동하세요.

날씨 관측과 예보를 보려면 클릭하세요.

지도 변경 : 확대하려면 엑스 표시가 있는 녹색 버튼, 축소하려면 빼기 표시가 있는 녹색 버튼, 다음 페이지의 지도를 보려면 녹색 화살표를 클릭하세요.


METAR-TAF: